sensor_id;sensor_type;location;lat;lon;timestamp;P1;durP1;ratioP1;P2;durP2;ratioP2
43823;SDS011;29470;53.550;9.926;2023-08-30T00:02:42;8.23;;;5.38;;
43823;SDS011;29470;53.550;9.926;2023-08-30T00:07:45;6.70;;;4.38;;
43823;SDS011;29470;53.550;9.926;2023-08-30T00:12:48;7.70;;;5.50;;
43823;SDS011;29470;53.550;9.926;2023-08-30T00:17:52;6.57;;;5.10;;
43823;SDS011;29470;53.550;9.926;2023-08-30T00:22:55;7.20;;;5.57;;
43823;SDS011;29470;53.550;9.926;2023-08-30T00:27:58;7.72;;;4.95;;
43823;SDS011;29470;53.550;9.926;2023-08-30T00:33:03;7.00;;;5.50;;
43823;SDS011;29470;53.550;9.926;2023-08-30T00:38:06;8.57;;;5.43;;
43823;SDS011;29470;53.550;9.926;2023-08-30T00:43:10;8.77;;;5.43;;
43823;SDS011;29470;53.550;9.926;2023-08-30T00:48:14;9.60;;;5.80;;
43823;SDS011;29470;53.550;9.926;2023-08-30T00:53:18;10.95;;;5.60;;
43823;SDS011;29470;53.550;9.926;2023-08-30T00:58:21;11.30;;;6.65;;
43823;SDS011;29470;53.550;9.926;2023-08-30T01:03:25;10.13;;;6.53;;
43823;SDS011;29470;53.550;9.926;2023-08-30T01:08:29;9.57;;;6.55;;
43823;SDS011;29470;53.550;9.926;2023-08-30T01:13:32;11.00;;;7.15;;
43823;SDS011;29470;53.550;9.926;2023-08-30T01:18:44;10.25;;;6.95;;
43823;SDS011;29470;53.550;9.926;2023-08-30T01:23:48;10.23;;;7.57;;
43823;SDS011;29470;53.550;9.926;2023-08-30T01:29:00;13.57;;;8.55;;
43823;SDS011;29470;53.550;9.926;2023-08-30T01:34:05;13.35;;;9.45;;
43823;SDS011;29470;53.550;9.926;2023-08-30T01:39:08;14.52;;;9.32;;
43823;SDS011;29470;53.550;9.926;2023-08-30T01:44:14;14.32;;;10.38;;
43823;SDS011;29470;53.550;9.926;2023-08-30T01:49:18;15.63;;;10.52;;
43823;SDS011;29470;53.550;9.926;2023-08-30T01:54:21;13.07;;;9.50;;
43823;SDS011;29470;53.550;9.926;2023-08-30T01:59:26;16.08;;;11.93;;
43823;SDS011;29470;53.550;9.926;2023-08-30T02:04:29;19.45;;;13.02;;
43823;SDS011;29470;53.550;9.926;2023-08-30T02:09:34;16.88;;;11.52;;
43823;SDS011;29470;53.550;9.926;2023-08-30T02:14:45;16.38;;;11.85;;
43823;SDS011;29470;53.550;9.926;2023-08-30T02:19:50;16.58;;;11.57;;
43823;SDS011;29470;53.550;9.926;2023-08-30T02:24:55;16.58;;;11.70;;
43823;SDS011;29470;53.550;9.926;2023-08-30T02:29:59;16.77;;;11.55;;
43823;SDS011;29470;53.550;9.926;2023-08-30T02:35:02;16.85;;;11.60;;
43823;SDS011;29470;53.550;9.926;2023-08-30T02:40:06;19.67;;;10.93;;
43823;SDS011;29470;53.550;9.926;2023-08-30T02:45:14;17.10;;;11.50;;
43823;SDS011;29470;53.550;9.926;2023-08-30T02:50:16;14.10;;;10.13;;
43823;SDS011;29470;53.550;9.926;2023-08-30T02:55:19;15.93;;;10.48;;
43823;SDS011;29470;53.550;9.926;2023-08-30T03:00:23;15.70;;;10.90;;
43823;SDS011;29470;53.550;9.926;2023-08-30T03:05:26;19.50;;;10.63;;
43823;SDS011;29470;53.550;9.926;2023-08-30T03:10:29;14.48;;;10.43;;
43823;SDS011;29470;53.550;9.926;2023-08-30T03:15:34;20.15;;;10.65;;
43823;SDS011;29470;53.550;9.926;2023-08-30T03:20:37;14.98;;;9.77;;
43823;SDS011;29470;53.550;9.926;2023-08-30T03:25:41;12.60;;;8.65;;
43823;SDS011;29470;53.550;9.926;2023-08-30T03:30:45;14.05;;;9.10;;
43823;SDS011;29470;53.550;9.926;2023-08-30T03:35:48;13.57;;;9.25;;
43823;SDS011;29470;53.550;9.926;2023-08-30T03:40:52;14.95;;;9.82;;
43823;SDS011;29470;53.550;9.926;2023-08-30T03:45:57;13.07;;;9.05;;
43823;SDS011;29470;53.550;9.926;2023-08-30T03:51:00;14.95;;;9.32;;
43823;SDS011;29470;53.550;9.926;2023-08-30T03:56:03;13.70;;;8.45;;
43823;SDS011;29470;53.550;9.926;2023-08-30T04:01:08;13.80;;;9.45;;
43823;SDS011;29470;53.550;9.926;2023-08-30T04:06:12;11.73;;;7.90;;
43823;SDS011;29470;53.550;9.926;2023-08-30T04:11:15;10.73;;;7.25;;
43823;SDS011;29470;53.550;9.926;2023-08-30T04:16:20;9.55;;;7.68;;
43823;SDS011;29470;53.550;9.926;2023-08-30T04:21:23;12.20;;;8.43;;
43823;SDS011;29470;53.550;9.926;2023-08-30T04:26:26;11.73;;;8.50;;
43823;SDS011;29470;53.550;9.926;2023-08-30T04:31:31;9.77;;;7.35;;
43823;SDS011;29470;53.550;9.926;2023-08-30T04:36:35;14.48;;;8.43;;
43823;SDS011;29470;53.550;9.926;2023-08-30T04:41:38;13.63;;;8.40;;
43823;SDS011;29470;53.550;9.926;2023-08-30T04:46:42;14.93;;;8.30;;
43823;SDS011;29470;53.550;9.926;2023-08-30T04:51:46;14.18;;;8.07;;
43823;SDS011;29470;53.550;9.926;2023-08-30T04:56:49;10.95;;;7.45;;
43823;SDS011;29470;53.550;9.926;2023-08-30T05:01:53;11.05;;;7.20;;
43823;SDS011;29470;53.550;9.926;2023-08-30T05:06:59;8.60;;;6.50;;
43823;SDS011;29470;53.550;9.926;2023-08-30T05:12:04;13.07;;;7.80;;
43823;SDS011;29470;53.550;9.926;2023-08-30T05:17:08;12.55;;;7.78;;
43823;SDS011;29470;53.550;9.926;2023-08-30T05:22:11;13.65;;;8.02;;
43823;SDS011;29470;53.550;9.926;2023-08-30T05:27:15;13.73;;;7.60;;
43823;SDS011;29470;53.550;9.926;2023-08-30T05:32:20;11.98;;;7.60;;
43823;SDS011;29470;53.550;9.926;2023-08-30T05:37:43;11.55;;;7.68;;
43823;SDS011;29470;53.550;9.926;2023-08-30T05:42:52;10.88;;;6.75;;
43823;SDS011;29470;53.550;9.926;2023-08-30T05:47:58;11.70;;;6.97;;
43823;SDS011;29470;53.550;9.926;2023-08-30T05:53:01;9.93;;;6.93;;
43823;SDS011;29470;53.550;9.926;2023-08-30T05:58:05;10.07;;;8.00;;
43823;SDS011;29470;53.550;9.926;2023-08-30T06:03:09;13.75;;;10.55;;
43823;SDS011;29470;53.550;9.926;2023-08-30T06:08:13;12.00;;;7.70;;
43823;SDS011;29470;53.550;9.926;2023-08-30T06:13:16;12.80;;;7.03;;
43823;SDS011;29470;53.550;9.926;2023-08-30T06:18:20;11.75;;;6.72;;
43823;SDS011;29470;53.550;9.926;2023-08-30T06:23:23;9.43;;;6.15;;
43823;SDS011;29470;53.550;9.926;2023-08-30T06:28:26;10.13;;;5.82;;
43823;SDS011;29470;53.550;9.926;2023-08-30T06:33:30;7.63;;;5.30;;
43823;SDS011;29470;53.550;9.926;2023-08-30T06:38:33;11.15;;;6.85;;
43823;SDS011;29470;53.550;9.926;2023-08-30T06:43:36;9.98;;;6.75;;
43823;SDS011;29470;53.550;9.926;2023-08-30T06:48:41;10.68;;;6.50;;
43823;SDS011;29470;53.550;9.926;2023-08-30T06:53:44;8.65;;;6.47;;
43823;SDS011;29470;53.550;9.926;2023-08-30T06:58:47;8.25;;;5.40;;
43823;SDS011;29470;53.550;9.926;2023-08-30T07:03:51;8.18;;;5.45;;
43823;SDS011;29470;53.550;9.926;2023-08-30T07:08:54;9.10;;;5.47;;
43823;SDS011;29470;53.550;9.926;2023-08-30T07:13:57;7.35;;;5.35;;
43823;SDS011;29470;53.550;9.926;2023-08-30T07:19:04;11.20;;;7.53;;
43823;SDS011;29470;53.550;9.926;2023-08-30T07:24:08;13.13;;;7.35;;
43823;SDS011;29470;53.550;9.926;2023-08-30T07:29:14;9.98;;;7.82;;
43823;SDS011;29470;53.550;9.926;2023-08-30T07:34:20;10.68;;;7.15;;
43823;SDS011;29470;53.550;9.926;2023-08-30T07:46:14;11.40;;;8.50;;
43823;SDS011;29470;53.550;9.926;2023-08-30T07:51:21;10.68;;;7.68;;
43823;SDS011;29470;53.550;9.926;2023-08-30T07:56:24;11.88;;;8.07;;
43823;SDS011;29470;53.550;9.926;2023-08-30T08:01:27;10.35;;;8.40;;
43823;SDS011;29470;53.550;9.926;2023-08-30T08:06:31;12.75;;;9.18;;
43823;SDS011;29470;53.550;9.926;2023-08-30T08:11:35;13.18;;;9.35;;
43823;SDS011;29470;53.550;9.926;2023-08-30T08:16:38;11.07;;;8.30;;
43823;SDS011;29470;53.550;9.926;2023-08-30T08:21:44;10.40;;;7.85;;
43823;SDS011;29470;53.550;9.926;2023-08-30T08:26:48;12.10;;;8.50;;
43823;SDS011;29470;53.550;9.926;2023-08-30T08:31:52;11.18;;;7.85;;
43823;SDS011;29470;53.550;9.926;2023-08-30T08:36:56;10.10;;;7.03;;
43823;SDS011;29470;53.550;9.926;2023-08-30T08:42:00;9.20;;;6.57;;
43823;SDS011;29470;53.550;9.926;2023-08-30T08:47:04;11.77;;;7.75;;
43823;SDS011;29470;53.550;9.926;2023-08-30T08:52:08;8.77;;;6.78;;
43823;SDS011;29470;53.550;9.926;2023-08-30T08:57:30;9.32;;;5.80;;
43823;SDS011;29470;53.550;9.926;2023-08-30T09:02:33;8.52;;;5.85;;
43823;SDS011;29470;53.550;9.926;2023-08-30T09:07:38;10.65;;;6.10;;
43823;SDS011;29470;53.550;9.926;2023-08-30T09:12:42;10.57;;;6.03;;
43823;SDS011;29470;53.550;9.926;2023-08-30T09:17:44;11.60;;;6.65;;
43823;SDS011;29470;53.550;9.926;2023-08-30T09:22:50;7.88;;;5.70;;
43823;SDS011;29470;53.550;9.926;2023-08-30T09:27:58;8.38;;;5.75;;
43823;SDS011;29470;53.550;9.926;2023-08-30T09:33:02;12.60;;;5.95;;
43823;SDS011;29470;53.550;9.926;2023-08-30T09:38:06;12.20;;;7.20;;
43823;SDS011;29470;53.550;9.926;2023-08-30T09:43:10;23.27;;;17.45;;
43823;SDS011;29470;53.550;9.926;2023-08-30T09:48:14;17.52;;;12.43;;
43823;SDS011;29470;53.550;9.926;2023-08-30T09:53:18;9.52;;;6.18;;
43823;SDS011;29470;53.550;9.926;2023-08-30T09:58:27;9.30;;;5.38;;
43823;SDS011;29470;53.550;9.926;2023-08-30T10:03:31;9.23;;;6.28;;
43823;SDS011;29470;53.550;9.926;2023-08-30T10:08:37;8.63;;;4.72;;
43823;SDS011;29470;53.550;9.926;2023-08-30T10:13:41;6.95;;;4.47;;
43823;SDS011;29470;53.550;9.926;2023-08-30T10:18:46;6.15;;;4.10;;
43823;SDS011;29470;53.550;9.926;2023-08-30T10:24:08;9.70;;;6.00;;
43823;SDS011;29470;53.550;9.926;2023-08-30T10:29:31;6.80;;;4.80;;
43823;SDS011;29470;53.550;9.926;2023-08-30T10:34:36;8.80;;;4.80;;
43823;SDS011;29470;53.550;9.926;2023-08-30T10:39:41;7.18;;;4.53;;
43823;SDS011;29470;53.550;9.926;2023-08-30T10:44:48;7.55;;;4.10;;
43823;SDS011;29470;53.550;9.926;2023-08-30T10:50:11;8.57;;;4.20;;
43823;SDS011;29470;53.550;9.926;2023-08-30T10:55:16;5.60;;;4.30;;
43823;SDS011;29470;53.550;9.926;2023-08-30T11:00:19;6.68;;;3.80;;
43823;SDS011;29470;53.550;9.926;2023-08-30T11:05:24;8.27;;;5.07;;
43823;SDS011;29470;53.550;9.926;2023-08-30T11:10:29;9.43;;;4.30;;
43823;SDS011;29470;53.550;9.926;2023-08-30T11:15:32;6.30;;;3.65;;
43823;SDS011;29470;53.550;9.926;2023-08-30T11:20:34;6.18;;;3.72;;
43823;SDS011;29470;53.550;9.926;2023-08-30T11:25:39;6.60;;;4.15;;
43823;SDS011;29470;53.550;9.926;2023-08-30T11:30:41;7.82;;;4.70;;
43823;SDS011;29470;53.550;9.926;2023-08-30T11:35:44;6.95;;;4.15;;
43823;SDS011;29470;53.550;9.926;2023-08-30T11:40:51;7.20;;;4.13;;
43823;SDS011;29470;53.550;9.926;2023-08-30T11:45:57;8.50;;;5.55;;
43823;SDS011;29470;53.550;9.926;2023-08-30T11:51:00;6.03;;;4.40;;
43823;SDS011;29470;53.550;9.926;2023-08-30T11:56:05;7.10;;;4.63;;
43823;SDS011;29470;53.550;9.926;2023-08-30T12:01:08;8.30;;;4.57;;
43823;SDS011;29470;53.550;9.926;2023-08-30T12:06:12;8.35;;;4.45;;
43823;SDS011;29470;53.550;9.926;2023-08-30T12:11:20;5.82;;;4.03;;
43823;SDS011;29470;53.550;9.926;2023-08-30T12:16:23;6.22;;;4.60;;
43823;SDS011;29470;53.550;9.926;2023-08-30T12:21:26;6.60;;;3.75;;
43823;SDS011;29470;53.550;9.926;2023-08-30T12:26:32;7.28;;;4.40;;
43823;SDS011;29470;53.550;9.926;2023-08-30T12:31:35;6.97;;;4.72;;
43823;SDS011;29470;53.550;9.926;2023-08-30T12:36:39;5.78;;;4.05;;
43823;SDS011;29470;53.550;9.926;2023-08-30T12:41:43;10.88;;;5.63;;
43823;SDS011;29470;53.550;9.926;2023-08-30T12:46:46;7.07;;;4.63;;
43823;SDS011;29470;53.550;9.926;2023-08-30T12:51:48;7.68;;;4.75;;
43823;SDS011;29470;53.550;9.926;2023-08-30T12:56:53;8.23;;;4.80;;
43823;SDS011;29470;53.550;9.926;2023-08-30T13:01:55;9.00;;;4.88;;
43823;SDS011;29470;53.550;9.926;2023-08-30T13:06:58;5.55;;;3.95;;
43823;SDS011;29470;53.550;9.926;2023-08-30T13:12:03;7.47;;;4.35;;
43823;SDS011;29470;53.550;9.926;2023-08-30T13:17:06;6.43;;;4.40;;
43823;SDS011;29470;53.550;9.926;2023-08-30T13:22:20;6.97;;;3.90;;
43823;SDS011;29470;53.550;9.926;2023-08-30T13:27:24;7.25;;;4.38;;
43823;SDS011;29470;53.550;9.926;2023-08-30T13:32:27;6.25;;;4.00;;
43823;SDS011;29470;53.550;9.926;2023-08-30T13:43:42;5.80;;;3.65;;
43823;SDS011;29470;53.550;9.926;2023-08-30T13:48:45;8.43;;;4.10;;
43823;SDS011;29470;53.550;9.926;2023-08-30T13:53:55;6.20;;;3.83;;
43823;SDS011;29470;53.550;9.926;2023-08-30T13:59:59;6.50;;;3.60;;
43823;SDS011;29470;53.550;9.926;2023-08-30T14:05:11;6.03;;;3.70;;
43823;SDS011;29470;53.550;9.926;2023-08-30T14:10:20;5.35;;;3.65;;
43823;SDS011;29470;53.550;9.926;2023-08-30T14:15:44;6.95;;;3.95;;
43823;SDS011;29470;53.550;9.926;2023-08-30T14:21:11;6.93;;;3.58;;
43823;SDS011;29470;53.550;9.926;2023-08-30T14:26:19;6.55;;;3.78;;
43823;SDS011;29470;53.550;9.926;2023-08-30T14:31:30;6.18;;;3.60;;
43823;SDS011;29470;53.550;9.926;2023-08-30T14:36:36;8.33;;;5.70;;
43823;SDS011;29470;53.550;9.926;2023-08-30T14:47:50;4.68;;;3.30;;
43823;SDS011;29470;53.550;9.926;2023-08-30T14:59:28;6.72;;;4.00;;
43823;SDS011;29470;53.550;9.926;2023-08-30T15:04:59;5.22;;;3.53;;
43823;SDS011;29470;53.550;9.926;2023-08-30T15:11:09;7.07;;;4.28;;
43823;SDS011;29470;53.550;9.926;2023-08-30T15:16:24;6.13;;;4.10;;
43823;SDS011;29470;53.550;9.926;2023-08-30T15:21:41;5.45;;;3.72;;
43823;SDS011;29470;53.550;9.926;2023-08-30T15:26:54;7.18;;;3.80;;
43823;SDS011;29470;53.550;9.926;2023-08-30T15:32:14;6.43;;;3.83;;
43823;SDS011;29470;53.550;9.926;2023-08-30T15:37:32;7.60;;;4.00;;
43823;SDS011;29470;53.550;9.926;2023-08-30T15:42:50;6.45;;;3.75;;
43823;SDS011;29470;53.550;9.926;2023-08-30T15:47:53;7.22;;;4.75;;
43823;SDS011;29470;53.550;9.926;2023-08-30T15:52:57;8.05;;;4.30;;
43823;SDS011;29470;53.550;9.926;2023-08-30T15:58:00;7.57;;;3.70;;
43823;SDS011;29470;53.550;9.926;2023-08-30T16:03:03;6.63;;;4.35;;
43823;SDS011;29470;53.550;9.926;2023-08-30T16:08:08;7.85;;;4.90;;
43823;SDS011;29470;53.550;9.926;2023-08-30T16:13:12;6.20;;;4.38;;
43823;SDS011;29470;53.550;9.926;2023-08-30T16:18:15;9.07;;;4.50;;
43823;SDS011;29470;53.550;9.926;2023-08-30T16:23:19;8.05;;;5.10;;
43823;SDS011;29470;53.550;9.926;2023-08-30T16:28:22;9.95;;;6.50;;
43823;SDS011;29470;53.550;9.926;2023-08-30T16:33:25;14.63;;;9.85;;
43823;SDS011;29470;53.550;9.926;2023-08-30T16:38:29;13.73;;;7.78;;
43823;SDS011;29470;53.550;9.926;2023-08-30T16:43:34;9.57;;;7.50;;
43823;SDS011;29470;53.550;9.926;2023-08-30T16:48:37;10.25;;;7.18;;
43823;SDS011;29470;53.550;9.926;2023-08-30T16:53:41;10.60;;;7.55;;
43823;SDS011;29470;53.550;9.926;2023-08-30T16:58:44;10.68;;;7.88;;
43823;SDS011;29470;53.550;9.926;2023-08-30T17:03:46;13.23;;;9.30;;
43823;SDS011;29470;53.550;9.926;2023-08-30T17:08:51;12.10;;;8.75;;
43823;SDS011;29470;53.550;9.926;2023-08-30T17:13:54;20.55;;;12.50;;
43823;SDS011;29470;53.550;9.926;2023-08-30T17:18:56;11.63;;;9.23;;
43823;SDS011;29470;53.550;9.926;2023-08-30T17:24:01;15.27;;;9.98;;
43823;SDS011;29470;53.550;9.926;2023-08-30T17:29:04;16.88;;;10.98;;
43823;SDS011;29470;53.550;9.926;2023-08-30T17:34:07;18.08;;;11.93;;
43823;SDS011;29470;53.550;9.926;2023-08-30T17:39:11;20.23;;;13.98;;
43823;SDS011;29470;53.550;9.926;2023-08-30T17:44:15;17.50;;;12.27;;
43823;SDS011;29470;53.550;9.926;2023-08-30T17:49:17;24.20;;;15.90;;
43823;SDS011;29470;53.550;9.926;2023-08-30T17:54:22;21.45;;;15.07;;
43823;SDS011;29470;53.550;9.926;2023-08-30T17:59:25;21.73;;;15.23;;
43823;SDS011;29470;53.550;9.926;2023-08-30T18:04:27;17.02;;;11.85;;
43823;SDS011;29470;53.550;9.926;2023-08-30T18:09:40;15.75;;;11.32;;
43823;SDS011;29470;53.550;9.926;2023-08-30T18:20:19;15.90;;;11.88;;
43823;SDS011;29470;53.550;9.926;2023-08-30T18:25:23;25.73;;;14.88;;
43823;SDS011;29470;53.550;9.926;2023-08-30T18:30:27;15.85;;;10.30;;
43823;SDS011;29470;53.550;9.926;2023-08-30T18:35:30;16.55;;;11.30;;
43823;SDS011;29470;53.550;9.926;2023-08-30T18:40:35;14.32;;;10.50;;
43823;SDS011;29470;53.550;9.926;2023-08-30T18:45:43;16.50;;;12.02;;
43823;SDS011;29470;53.550;9.926;2023-08-30T18:55:53;23.98;;;17.13;;
43823;SDS011;29470;53.550;9.926;2023-08-30T19:00:58;23.42;;;17.30;;
43823;SDS011;29470;53.550;9.926;2023-08-30T19:06:02;25.77;;;18.98;;
43823;SDS011;29470;53.550;9.926;2023-08-30T19:11:07;26.10;;;16.77;;
43823;SDS011;29470;53.550;9.926;2023-08-30T19:16:14;24.58;;;17.10;;
43823;SDS011;29470;53.550;9.926;2023-08-30T19:21:18;18.33;;;13.10;;
43823;SDS011;29470;53.550;9.926;2023-08-30T19:26:24;18.27;;;12.15;;
43823;SDS011;29470;53.550;9.926;2023-08-30T19:31:31;16.67;;;10.90;;
43823;SDS011;29470;53.550;9.926;2023-08-30T19:36:36;13.38;;;10.07;;
43823;SDS011;29470;53.550;9.926;2023-08-30T19:41:40;10.32;;;7.20;;
43823;SDS011;29470;53.550;9.926;2023-08-30T19:46:43;9.40;;;6.18;;
43823;SDS011;29470;53.550;9.926;2023-08-30T19:51:46;7.47;;;5.43;;
43823;SDS011;29470;53.550;9.926;2023-08-30T19:56:50;8.25;;;6.15;;
43823;SDS011;29470;53.550;9.926;2023-08-30T20:01:53;8.52;;;6.22;;
43823;SDS011;29470;53.550;9.926;2023-08-30T20:06:56;9.80;;;6.03;;
43823;SDS011;29470;53.550;9.926;2023-08-30T20:12:01;10.82;;;7.13;;
43823;SDS011;29470;53.550;9.926;2023-08-30T20:17:06;9.90;;;6.25;;
43823;SDS011;29470;53.550;9.926;2023-08-30T20:22:09;8.65;;;6.22;;
43823;SDS011;29470;53.550;9.926;2023-08-30T20:27:14;10.02;;;7.35;;
43823;SDS011;29470;53.550;9.926;2023-08-30T20:32:17;8.70;;;6.10;;
43823;SDS011;29470;53.550;9.926;2023-08-30T20:43:10;8.52;;;6.63;;
43823;SDS011;29470;53.550;9.926;2023-08-30T20:48:27;7.32;;;5.63;;
43823;SDS011;29470;53.550;9.926;2023-08-30T20:54:06;6.68;;;4.63;;
43823;SDS011;29470;53.550;9.926;2023-08-30T20:59:10;7.07;;;5.03;;
43823;SDS011;29470;53.550;9.926;2023-08-30T21:04:13;6.75;;;5.35;;
43823;SDS011;29470;53.550;9.926;2023-08-30T21:09:16;8.00;;;5.70;;
43823;SDS011;29470;53.550;9.926;2023-08-30T21:14:20;7.97;;;5.60;;
43823;SDS011;29470;53.550;9.926;2023-08-30T21:19:23;8.27;;;6.05;;
43823;SDS011;29470;53.550;9.926;2023-08-30T21:24:30;9.32;;;6.57;;
43823;SDS011;29470;53.550;9.926;2023-08-30T21:29:34;9.45;;;7.00;;
43823;SDS011;29470;53.550;9.926;2023-08-30T21:34:37;10.35;;;7.78;;
43823;SDS011;29470;53.550;9.926;2023-08-30T21:39:42;14.05;;;8.95;;
43823;SDS011;29470;53.550;9.926;2023-08-30T21:44:47;12.07;;;9.13;;
43823;SDS011;29470;53.550;9.926;2023-08-30T21:49:50;14.25;;;9.20;;
43823;SDS011;29470;53.550;9.926;2023-08-30T21:54:53;17.90;;;11.50;;
43823;SDS011;29470;53.550;9.926;2023-08-30T21:59:57;17.75;;;11.63;;
43823;SDS011;29470;53.550;9.926;2023-08-30T22:05:00;16.05;;;11.13;;
43823;SDS011;29470;53.550;9.926;2023-08-30T22:10:03;18.38;;;11.85;;
43823;SDS011;29470;53.550;9.926;2023-08-30T22:15:09;18.92;;;12.38;;
43823;SDS011;29470;53.550;9.926;2023-08-30T22:20:15;17.23;;;11.93;;
43823;SDS011;29470;53.550;9.926;2023-08-30T22:25:19;19.55;;;13.20;;
43823;SDS011;29470;53.550;9.926;2023-08-30T22:30:24;16.70;;;12.25;;
43823;SDS011;29470;53.550;9.926;2023-08-30T22:35:27;16.60;;;11.88;;
43823;SDS011;29470;53.550;9.926;2023-08-30T22:40:30;18.90;;;12.68;;
43823;SDS011;29470;53.550;9.926;2023-08-30T22:45:34;17.40;;;11.98;;
43823;SDS011;29470;53.550;9.926;2023-08-30T22:50:37;15.32;;;10.85;;
43823;SDS011;29470;53.550;9.926;2023-08-30T22:55:41;16.63;;;10.30;;
43823;SDS011;29470;53.550;9.926;2023-08-30T23:00:47;14.40;;;10.20;;
43823;SDS011;29470;53.550;9.926;2023-08-30T23:05:49;14.48;;;9.85;;
43823;SDS011;29470;53.550;9.926;2023-08-30T23:10:52;12.52;;;8.68;;
43823;SDS011;29470;53.550;9.926;2023-08-30T23:15:57;12.48;;;8.48;;
43823;SDS011;29470;53.550;9.926;2023-08-30T23:21:00;12.07;;;8.60;;
43823;SDS011;29470;53.550;9.926;2023-08-30T23:26:03;10.85;;;8.07;;
43823;SDS011;29470;53.550;9.926;2023-08-30T23:31:10;12.20;;;8.38;;
43823;SDS011;29470;53.550;9.926;2023-08-30T23:36:13;12.93;;;8.68;;
43823;SDS011;29470;53.550;9.926;2023-08-30T23:41:16;11.57;;;8.07;;
43823;SDS011;29470;53.550;9.926;2023-08-30T23:46:22;9.88;;;6.78;;
43823;SDS011;29470;53.550;9.926;2023-08-30T23:51:25;10.63;;;7.03;;
43823;SDS011;29470;53.550;9.926;2023-08-30T23:56:28;13.77;;;7.40;;
